createdAt,value
2023-02-25T00:01:36.854Z,3.45
2023-02-25T00:04:03.991Z,3.37
2023-02-25T00:06:30.460Z,3.39
2023-02-25T00:08:57.213Z,3.29
2023-02-25T00:11:27.486Z,3.42
2023-02-25T00:13:56.818Z,3.25
2023-02-25T00:16:27.552Z,3.19
2023-02-25T00:18:58.175Z,3.27
2023-02-25T00:21:29.577Z,3.32
2023-02-25T00:24:00.117Z,3.25
2023-02-25T00:26:31.006Z,3.04
2023-02-25T00:28:57.770Z,3.11
2023-02-25T00:31:28.635Z,2.92
2023-02-25T00:33:55.820Z,2.68
2023-02-25T00:36:25.519Z,2.63
2023-02-25T00:39:01.204Z,2.75
2023-02-25T00:41:30.210Z,2.89
2023-02-25T00:44:02.233Z,2.60
2023-02-25T00:46:31.043Z,2.53
2023-02-25T00:48:58.964Z,2.67
2023-02-25T00:51:28.513Z,2.48
2023-02-25T00:53:56.847Z,2.39
2023-02-25T00:56:26.540Z,2.53
2023-02-25T00:58:56.481Z,2.34
2023-02-25T01:01:29.002Z,2.41
2023-02-25T01:04:00.153Z,2.56
2023-02-25T01:06:28.737Z,2.72
2023-02-25T01:08:56.613Z,2.63
2023-02-25T01:11:29.446Z,2.66
2023-02-25T01:14:00.944Z,2.94
2023-02-25T01:16:32.395Z,2.95
2023-02-25T01:19:01.709Z,2.72
2023-02-25T01:21:31.958Z,2.70
2023-02-25T01:24:05.300Z,2.89
2023-02-25T01:26:35.003Z,2.93
2023-02-25T01:29:01.872Z,3.06
2023-02-25T01:31:31.854Z,2.97
2023-02-25T01:34:03.659Z,2.96
2023-02-25T01:36:31.704Z,2.94
2023-02-25T01:39:02.441Z,2.93
2023-02-25T01:41:30.813Z,2.95
2023-02-25T01:44:08.365Z,2.80
2023-02-25T01:46:36.473Z,2.77
2023-02-25T01:49:07.412Z,2.60
2023-02-25T01:51:35.835Z,2.51
2023-02-25T01:54:04.420Z,2.43
2023-02-25T01:56:31.841Z,2.48
2023-02-25T01:59:02.273Z,2.55
2023-02-25T02:01:35.379Z,2.64
2023-02-25T02:04:04.484Z,2.67
2023-02-25T02:06:37.538Z,2.80
2023-02-25T02:09:07.233Z,2.92
2023-02-25T02:11:34.216Z,2.89
2023-02-25T02:14:06.143Z,3.03
2023-02-25T02:16:44.644Z,3.03
2023-02-25T02:19:36.212Z,3.19
2023-02-25T02:22:24.132Z,3.24
2023-02-25T02:25:17.745Z,3.13
2023-02-25T02:28:11.871Z,3.22
2023-02-25T02:31:17.532Z,3.23
2023-02-25T02:34:18.691Z,3.39
2023-02-25T02:36:51.535Z,3.50
2023-02-25T02:39:33.984Z,3.50
2023-02-25T02:42:21.712Z,3.59
2023-02-25T02:44:58.742Z,3.55
2023-02-25T02:47:32.181Z,3.45
2023-02-25T02:50:10.001Z,3.37
2023-02-25T02:52:51.632Z,3.18
2023-02-25T02:55:34.128Z,3.25
2023-02-25T02:58:06.912Z,3.31
2023-02-25T03:00:39.844Z,3.42
2023-02-25T03:03:14.617Z,3.65
2023-02-25T03:05:45.447Z,3.55
2023-02-25T03:08:17.336Z,3.67
2023-02-25T03:10:44.720Z,3.61
2023-02-25T03:13:12.019Z,3.64
2023-02-25T03:15:41.224Z,3.62
2023-02-25T03:18:30.953Z,3.63
2023-02-25T03:20:58.870Z,3.68
2023-02-25T03:23:32.781Z,3.66
2023-02-25T03:26:23.133Z,3.68
2023-02-25T03:28:50.296Z,3.70
2023-02-25T03:31:25.463Z,3.89
2023-02-25T03:33:56.659Z,3.93
2023-02-25T03:36:41.969Z,3.89
2023-02-25T03:39:20.567Z,3.89
2023-02-25T03:41:52.160Z,3.88
2023-02-25T03:44:24.947Z,3.92
2023-02-25T03:46:53.698Z,3.94
2023-02-25T03:49:26.294Z,3.99
2023-02-25T03:51:56.475Z,4.06
2023-02-25T03:54:23.005Z,4.05
2023-02-25T03:56:51.411Z,3.93
2023-02-25T03:59:19.187Z,3.92
2023-02-25T04:01:50.206Z,3.98
2023-02-25T04:04:16.793Z,4.12
2023-02-25T04:06:43.305Z,4.27
2023-02-25T04:09:09.822Z,4.26
2023-02-25T04:11:39.228Z,4.10
2023-02-25T04:14:07.315Z,4.35
2023-02-25T04:16:33.897Z,4.34
2023-02-25T04:19:00.382Z,4.28
2023-02-25T04:21:37.576Z,4.29
2023-02-25T04:24:09.223Z,4.27
2023-02-25T04:26:38.434Z,4.29
2023-02-25T04:29:05.003Z,4.29
2023-02-25T04:31:31.982Z,4.18
2023-02-25T04:33:58.559Z,4.20
2023-02-25T04:36:29.913Z,4.32
2023-02-25T04:38:57.820Z,4.44
2023-02-25T04:41:24.934Z,4.35
2023-02-25T04:43:51.378Z,4.20
2023-02-25T04:46:17.926Z,4.32
2023-02-25T04:48:44.460Z,4.28
2023-02-25T04:51:10.966Z,4.21
2023-02-25T04:53:38.443Z,4.08
2023-02-25T04:56:08.552Z,4.22
2023-02-25T04:58:36.404Z,3.89
2023-02-25T05:01:05.589Z,3.75
2023-02-25T05:03:33.558Z,3.73
2023-02-25T05:06:00.390Z,3.59
2023-02-25T05:08:27.627Z,3.71
2023-02-25T05:10:54.256Z,3.73
2023-02-25T05:13:21.311Z,3.70
2023-02-25T05:15:48.257Z,3.70
2023-02-25T05:18:14.917Z,3.72
2023-02-25T05:20:43.237Z,3.70
2023-02-25T05:23:13.579Z,3.66
2023-02-25T05:25:43.557Z,3.58
2023-02-25T05:28:13.153Z,3.55
2023-02-25T05:30:43.415Z,3.77
2023-02-25T05:33:14.212Z,3.74
2023-02-25T05:35:44.904Z,3.63
2023-02-25T05:38:14.464Z,3.89
2023-02-25T05:40:44.373Z,3.94
2023-02-25T05:43:13.791Z,3.84
2023-02-25T05:45:56.457Z,3.92
2023-02-25T05:48:23.723Z,3.79
2023-02-25T05:50:51.396Z,3.76
2023-02-25T05:53:20.539Z,3.94
2023-02-25T05:55:47.057Z,3.82
2023-02-25T05:58:13.564Z,3.84
2023-02-25T06:00:41.825Z,3.88
2023-02-25T06:03:08.343Z,4.05
2023-02-25T06:05:34.860Z,4.09
2023-02-25T06:08:01.368Z,4.19
2023-02-25T06:10:27.850Z,4.06
2023-02-25T06:12:54.367Z,4.12
2023-02-25T06:15:20.818Z,4.21
2023-02-25T06:17:47.298Z,4.11
2023-02-25T06:20:16.550Z,3.97
2023-02-25T06:22:43.565Z,3.91
2023-02-25T06:25:13.728Z,3.99
2023-02-25T06:27:45.491Z,4.04
2023-02-25T06:30:13.010Z,4.09
2023-02-25T06:32:43.637Z,4.30
2023-02-25T06:35:14.781Z,4.30
2023-02-25T06:37:44.524Z,4.19
2023-02-25T06:40:15.228Z,4.17
2023-02-25T06:42:42.084Z,4.33
2023-02-25T06:45:11.592Z,4.32
2023-02-25T06:47:38.120Z,4.18
2023-02-25T06:50:05.469Z,4.32
2023-02-25T06:52:32.041Z,4.32
2023-02-25T06:54:58.472Z,4.49
2023-02-25T06:57:25.147Z,4.56
2023-02-25T06:59:53.313Z,4.46
2023-02-25T07:02:20.186Z,4.63
2023-02-25T07:04:46.706Z,4.65
2023-02-25T07:07:13.194Z,4.57
2023-02-25T07:09:39.882Z,4.45
2023-02-25T07:12:07.570Z,4.45
2023-02-25T07:14:34.068Z,4.37
2023-02-25T07:17:00.635Z,4.48
2023-02-25T07:19:27.159Z,4.37
2023-02-25T07:21:55.213Z,4.44
2023-02-25T07:24:23.437Z,4.54
2023-02-25T07:26:50.033Z,4.64
2023-02-25T07:29:17.002Z,4.60
2023-02-25T07:31:45.723Z,4.69
2023-02-25T07:34:12.812Z,4.65
2023-02-25T07:36:43.653Z,4.66
2023-02-25T07:39:15.614Z,4.70
2023-02-25T07:41:42.655Z,4.67
2023-02-25T07:44:10.747Z,4.66
2023-02-25T07:46:37.697Z,4.67
2023-02-25T07:49:04.683Z,4.64
2023-02-25T07:51:31.151Z,4.68
2023-02-25T07:53:58.318Z,4.64
2023-02-25T07:56:28.562Z,4.77
2023-02-25T07:58:55.658Z,4.87
2023-02-25T08:01:26.375Z,4.95
2023-02-25T08:03:55.224Z,5.10
2023-02-25T08:06:22.081Z,5.12
2023-02-25T08:08:52.303Z,5.13
2023-02-25T08:11:20.660Z,5.22
2023-02-25T08:13:47.934Z,5.27
2023-02-25T08:16:17.039Z,5.20
2023-02-25T08:18:43.878Z,5.47
2023-02-25T08:21:12.872Z,5.45
2023-02-25T08:23:45.614Z,5.30
2023-02-25T08:26:12.464Z,5.24
2023-02-25T08:28:41.349Z,5.65
2023-02-25T08:31:14.597Z,5.68
2023-02-25T08:33:49.538Z,5.67
2023-02-25T08:36:20.577Z,5.80
2023-02-25T08:38:47.641Z,5.84
2023-02-25T08:41:14.572Z,5.86
2023-02-25T08:43:44.437Z,5.86
2023-02-25T08:46:14.076Z,5.78
2023-02-25T08:48:43.535Z,5.94
2023-02-25T08:51:15.146Z,6.07
2023-02-25T08:53:44.759Z,6.00
2023-02-25T08:56:16.368Z,6.10
2023-02-25T08:58:43.861Z,5.99
2023-02-25T09:01:14.385Z,6.09
2023-02-25T09:04:18.944Z,5.95
2023-02-25T09:06:49.039Z,6.06
2023-02-25T09:09:17.096Z,6.14
2023-02-25T09:11:44.986Z,6.15
2023-02-25T09:14:15.604Z,6.25
2023-02-25T09:16:42.203Z,6.16
2023-02-25T09:19:10.865Z,6.25
2023-02-25T09:21:37.489Z,6.31
2023-02-25T09:24:04.399Z,6.45
2023-02-25T09:26:30.914Z,6.44
2023-02-25T09:29:01.138Z,6.48
2023-02-25T09:31:28.085Z,6.50
2023-02-25T09:33:54.811Z,6.54
2023-02-25T09:36:22.417Z,6.74
2023-02-25T09:38:50.597Z,6.90
2023-02-25T09:41:29.311Z,7.04
2023-02-25T09:44:03.560Z,7.05
2023-02-25T09:46:46.392Z,7.16
2023-02-25T09:49:20.198Z,7.23
2023-02-25T09:51:52.905Z,7.14
2023-02-25T09:54:51.746Z,7.24
2023-02-25T09:57:22.480Z,7.32
2023-02-25T09:59:53.652Z,7.56
2023-02-25T10:02:44.222Z,7.66
2023-02-25T10:05:39.174Z,7.87
2023-02-25T10:08:20.906Z,8.02
2023-02-25T10:10:59.424Z,8.07
2023-02-25T10:13:54.784Z,8.06
2023-02-25T10:16:49.105Z,8.12
2023-02-25T10:19:30.744Z,8.19
2023-02-25T10:22:17.362Z,8.12
2023-02-25T10:24:48.589Z,8.16
2023-02-25T10:27:24.500Z,8.21
2023-02-25T10:29:56.963Z,8.26
2023-02-25T10:32:27.151Z,8.37
2023-02-25T10:34:57.987Z,8.47
2023-02-25T10:37:36.019Z,8.60
2023-02-25T10:40:11.293Z,8.62
2023-02-25T10:42:38.446Z,8.63
2023-02-25T10:45:14.490Z,8.65
2023-02-25T10:47:49.372Z,8.66
2023-02-25T10:50:27.734Z,8.64
2023-02-25T10:53:05.197Z,8.37
2023-02-25T10:55:43.785Z,8.46
2023-02-25T10:58:34.888Z,8.21
2023-02-25T11:01:12.571Z,8.17
2023-02-25T11:03:48.198Z,8.11
2023-02-25T11:06:24.837Z,8.08
2023-02-25T11:08:54.699Z,8.08
2023-02-25T11:11:24.750Z,7.96
2023-02-25T11:14:07.002Z,7.89
2023-02-25T11:16:36.473Z,7.97
2023-02-25T11:19:31.654Z,8.13
2023-02-25T11:22:06.153Z,8.31
2023-02-25T11:24:36.158Z,8.54
2023-02-25T11:27:04.614Z,8.73
2023-02-25T11:29:42.628Z,8.63
2023-02-25T11:32:16.619Z,8.69
2023-02-25T11:34:53.743Z,8.77
2023-02-25T11:37:45.308Z,8.69
2023-02-25T11:40:44.169Z,8.60
2023-02-25T11:43:34.115Z,8.57
2023-02-25T11:46:08.955Z,8.90
2023-02-25T11:48:49.942Z,9.07
2023-02-25T11:51:22.429Z,9.23
2023-02-25T11:54:21.371Z,9.37
2023-02-25T11:57:26.006Z,9.26
2023-02-25T12:00:48.348Z,9.39
2023-02-25T12:03:39.102Z,9.48
2023-02-25T12:06:24.087Z,9.42
2023-02-25T12:09:17.801Z,9.15
2023-02-25T12:12:06.333Z,8.98
2023-02-25T12:15:00.897Z,8.80
2023-02-25T12:18:01.976Z,8.61
2023-02-25T12:21:07.256Z,8.64
2023-02-25T12:23:49.868Z,8.45
2023-02-25T12:26:43.990Z,8.34
2023-02-25T12:29:23.159Z,8.33
2023-02-25T12:32:24.845Z,8.33
2023-02-25T12:35:12.696Z,8.24
2023-02-25T12:38:00.586Z,8.54
2023-02-25T12:40:49.012Z,8.54
2023-02-25T12:43:40.740Z,8.72
2023-02-25T12:46:16.519Z,8.88
2023-02-25T12:49:34.178Z,9.03
2023-02-25T12:52:23.972Z,8.91
2023-02-25T12:55:02.316Z,8.86
2023-02-25T12:57:50.183Z,8.86
2023-02-25T13:00:28.898Z,8.72
2023-02-25T13:03:33.195Z,8.55
2023-02-25T13:06:33.595Z,8.23
2023-02-25T13:09:26.616Z,8.17
2023-02-25T13:12:11.559Z,8.18
2023-02-25T13:15:07.482Z,8.14
2023-02-25T13:17:51.243Z,7.99
2023-02-25T13:20:35.401Z,8.19
2023-02-25T13:23:31.032Z,8.17
2023-02-25T13:26:09.530Z,8.23
2023-02-25T13:28:35.955Z,8.25
2023-02-25T13:31:16.610Z,8.26
2023-02-25T13:34:03.558Z,8.27
2023-02-25T13:36:52.801Z,8.32
2023-02-25T13:39:47.721Z,8.66
2023-02-25T13:42:51.941Z,8.58
2023-02-25T13:45:38.578Z,8.53
2023-02-25T13:48:44.284Z,8.35
2023-02-25T13:51:16.002Z,8.21
2023-02-25T13:54:23.171Z,8.06
2023-02-25T13:57:11.638Z,7.93
2023-02-25T13:59:47.230Z,7.87
2023-02-25T14:02:18.206Z,7.71
2023-02-25T14:04:53.198Z,7.77
2023-02-25T14:07:32.218Z,7.72
2023-02-25T14:10:18.459Z,7.47
2023-02-25T14:13:21.960Z,7.57
2023-02-25T14:16:22.853Z,7.65
2023-02-25T14:19:10.228Z,7.66
2023-02-25T14:21:58.234Z,7.77
2023-02-25T14:25:02.836Z,7.76
2023-02-25T14:28:07.195Z,7.73
2023-02-25T14:30:54.814Z,7.77
2023-02-25T14:33:52.320Z,7.77
2023-02-25T14:36:41.738Z,7.69
2023-02-25T14:39:21.667Z,7.74
2023-02-25T14:42:11.532Z,7.66
2023-02-25T14:44:41.199Z,7.60
2023-02-25T14:47:18.067Z,7.56
2023-02-25T14:50:07.120Z,7.78
2023-02-25T14:52:59.465Z,7.72
2023-02-25T14:55:55.765Z,7.42
2023-02-25T14:58:28.113Z,7.50
2023-02-25T15:01:12.944Z,7.61
2023-02-25T15:03:48.437Z,7.59
2023-02-25T15:06:30.077Z,7.45
2023-02-25T15:09:22.553Z,7.25
2023-02-25T15:12:20.385Z,7.34
2023-02-25T15:15:09.901Z,7.16
2023-02-25T15:17:58.287Z,7.01
2023-02-25T15:20:39.214Z,6.87
2023-02-25T15:23:13.685Z,6.90
2023-02-25T15:25:50.335Z,6.69
2023-02-25T15:28:31.618Z,6.47
2023-02-25T15:31:01.045Z,6.40
2023-02-25T15:33:33.982Z,6.40
2023-02-25T15:36:18.961Z,6.16
2023-02-25T15:38:52.252Z,6.45
2023-02-25T15:41:27.758Z,6.44
2023-02-25T15:43:59.160Z,6.33
2023-02-25T15:46:35.077Z,6.24
2023-02-25T15:49:07.811Z,6.23
2023-02-25T15:51:52.748Z,6.23
2023-02-25T15:54:31.174Z,6.16
2023-02-25T15:57:00.046Z,6.12
2023-02-25T16:00:01.049Z,6.09
2023-02-25T16:02:30.388Z,6.12
2023-02-25T16:05:19.409Z,6.08
2023-02-25T16:07:49.900Z,6.03
2023-02-25T16:10:22.569Z,5.99
2023-02-25T16:12:52.797Z,6.00
2023-02-25T16:15:25.608Z,5.92
2023-02-25T16:17:56.142Z,5.97
2023-02-25T16:20:48.529Z,5.91
2023-02-25T16:23:19.481Z,5.95
2023-02-25T16:26:18.676Z,5.80
2023-02-25T16:29:02.790Z,5.93
2023-02-25T16:31:44.064Z,5.89
2023-02-25T16:34:22.486Z,5.79
2023-02-25T16:37:21.696Z,5.85
2023-02-25T16:39:51.921Z,5.81
2023-02-25T16:42:21.290Z,5.47
2023-02-25T16:44:58.828Z,5.80
2023-02-25T16:47:29.369Z,5.73
2023-02-25T16:49:58.235Z,5.82
2023-02-25T16:52:36.134Z,5.71
2023-02-25T16:55:10.340Z,5.68
2023-02-25T16:57:38.648Z,5.60
2023-02-25T17:00:24.220Z,5.61
2023-02-25T17:03:00.515Z,5.58
2023-02-25T17:05:34.020Z,5.61
2023-02-25T17:08:02.587Z,5.54
2023-02-25T17:10:33.485Z,5.51
2023-02-25T17:13:02.840Z,5.44
2023-02-25T17:15:32.495Z,5.56
2023-02-25T17:18:12.371Z,5.57
2023-02-25T17:20:40.008Z,5.40
2023-02-25T17:23:10.322Z,5.51
2023-02-25T17:25:41.415Z,5.56
2023-02-25T17:28:16.025Z,5.53
2023-02-25T17:30:48.400Z,5.66
2023-02-25T17:33:26.587Z,5.70
2023-02-25T17:36:03.149Z,5.71
2023-02-25T17:38:30.111Z,5.67
2023-02-25T17:40:57.059Z,5.78
2023-02-25T17:43:33.006Z,5.82
2023-02-25T17:46:03.086Z,5.87
2023-02-25T17:48:32.502Z,6.04
2023-02-25T17:51:08.412Z,6.00
2023-02-25T17:53:47.075Z,5.90
2023-02-25T17:56:23.342Z,5.94
2023-02-25T17:58:54.157Z,5.88
2023-02-25T18:01:32.022Z,5.79
2023-02-25T18:04:05.209Z,5.66
2023-02-25T18:06:41.102Z,5.65
2023-02-25T18:09:28.669Z,5.59
2023-02-25T18:12:14.696Z,5.67
2023-02-25T18:14:45.880Z,5.56
2023-02-25T18:17:28.529Z,5.59
2023-02-25T18:20:01.114Z,5.62
2023-02-25T18:22:39.161Z,5.58
2023-02-25T18:25:27.880Z,5.51
2023-02-25T18:27:58.342Z,5.51
2023-02-25T18:30:56.138Z,5.54
2023-02-25T18:33:34.627Z,5.36
2023-02-25T18:36:01.818Z,5.20
2023-02-25T18:38:30.935Z,5.19
2023-02-25T18:40:58.269Z,5.32
2023-02-25T18:46:41.993Z,5.15
2023-02-25T18:49:08.833Z,5.39
2023-02-25T18:51:35.920Z,5.42
2023-02-25T18:54:02.757Z,5.44
2023-02-25T18:56:29.673Z,5.44
2023-02-25T18:58:57.629Z,5.48
2023-02-25T19:01:28.700Z,5.37
2023-02-25T19:04:01.552Z,5.32
2023-02-25T19:06:29.247Z,5.24
2023-02-25T19:08:56.813Z,5.09
2023-02-25T19:11:30.878Z,5.08
2023-02-25T19:13:57.838Z,5.07
2023-02-25T19:18:22.860Z,5.26
2023-02-25T19:20:32.565Z,5.22
2023-02-25T19:27:10.071Z,4.99
2023-02-25T19:29:36.578Z,5.28
2023-02-25T19:32:03.175Z,5.27
2023-02-25T19:34:29.782Z,5.11
2023-02-25T19:36:59.887Z,5.13
2023-02-25T19:39:29.283Z,5.22
2023-02-25T19:42:00.356Z,5.05
2023-02-25T19:44:47.920Z,5.01
2023-02-25T19:47:15.873Z,5.03
2023-02-25T19:49:42.651Z,5.02
2023-02-25T19:52:09.158Z,5.09
2023-02-25T19:54:35.627Z,5.01
2023-02-25T19:57:02.068Z,4.93
2023-02-25T19:59:31.299Z,4.86
2023-02-25T20:02:01.585Z,4.89
2023-02-25T20:04:31.489Z,4.90
2023-02-25T20:07:00.830Z,4.82
2023-02-25T20:09:30.636Z,4.80
2023-02-25T20:11:59.773Z,4.68
2023-02-25T20:14:31.282Z,4.78
2023-02-25T20:17:00.809Z,4.68
2023-02-25T20:19:32.892Z,4.72
2023-02-25T20:25:24.220Z,4.78
2023-02-25T20:27:50.752Z,4.77
2023-02-25T20:30:18.026Z,4.68
2023-02-25T20:32:45.313Z,4.75
2023-02-25T20:35:18.364Z,4.56
2023-02-25T20:38:00.217Z,4.50
2023-02-25T20:40:28.154Z,4.47
2023-02-25T20:42:54.859Z,4.54
2023-02-25T20:45:21.641Z,4.62
2023-02-25T20:47:48.293Z,4.53
2023-02-25T20:50:15.874Z,4.58
2023-02-25T20:52:42.468Z,4.45
2023-02-25T20:55:09.528Z,4.51
2023-02-25T20:57:36.055Z,4.63
2023-02-25T21:00:02.623Z,4.54
2023-02-25T21:02:29.666Z,4.31
2023-02-25T21:04:58.589Z,4.32
2023-02-25T21:07:25.072Z,4.46
2023-02-25T21:09:51.544Z,4.37
2023-02-25T21:12:18.052Z,4.42
2023-02-25T21:14:44.484Z,4.43
2023-02-25T21:17:13.536Z,4.27
2023-02-25T21:19:40.536Z,4.37
2023-02-25T21:22:08.002Z,4.44
2023-02-25T21:24:36.178Z,4.28
2023-02-25T21:27:11.569Z,4.13
2023-02-25T21:29:38.626Z,4.19
2023-02-25T21:32:05.434Z,4.14
2023-02-25T21:34:31.996Z,4.42
2023-02-25T21:37:01.328Z,4.17
2023-02-25T21:39:29.950Z,4.27
2023-02-25T21:41:56.621Z,4.24
2023-02-25T21:44:23.157Z,4.29
2023-02-25T21:46:49.679Z,4.41
2023-02-25T21:49:16.203Z,4.34
2023-02-25T21:51:42.796Z,4.37
2023-02-25T21:54:09.669Z,4.40
2023-02-25T21:56:36.263Z,4.38
2023-02-25T21:59:05.719Z,4.28
2023-02-25T22:01:43.921Z,4.35
2023-02-25T22:04:11.408Z,4.09
2023-02-25T22:06:38.468Z,4.03
2023-02-25T22:09:06.795Z,4.08
2023-02-25T22:11:36.074Z,4.20
2023-02-25T22:14:05.700Z,3.98
2023-02-25T22:16:32.581Z,4.01
2023-02-25T22:19:03.307Z,4.03
2023-02-25T22:21:35.463Z,4.06
2023-02-25T22:24:06.147Z,4.07
2023-02-25T22:26:34.875Z,4.24
2023-02-25T22:29:09.216Z,4.17
2023-02-25T22:31:36.551Z,4.23
2023-02-25T22:34:04.098Z,4.26
2023-02-25T22:36:31.485Z,4.26
2023-02-25T22:38:57.972Z,4.21
2023-02-25T22:41:29.528Z,4.27
2023-02-25T22:43:58.467Z,4.21
2023-02-25T22:46:29.205Z,4.24
2023-02-25T22:48:56.199Z,4.30
2023-02-25T22:51:28.818Z,4.24
2023-02-25T22:53:56.395Z,4.31
2023-02-25T22:56:23.570Z,4.31
2023-02-25T22:58:50.678Z,4.29
2023-02-25T23:01:19.402Z,4.31
2023-02-25T23:03:47.045Z,4.20
2023-02-25T23:06:15.671Z,4.13
2023-02-25T23:08:42.675Z,4.00
2023-02-25T23:11:16.418Z,3.98
2023-02-25T23:13:48.177Z,3.88
2023-02-25T23:16:34.252Z,3.81
2023-02-25T23:19:05.783Z,3.87
2023-02-25T23:21:38.653Z,3.66
2023-02-25T23:24:07.505Z,3.68
2023-02-25T23:26:38.696Z,3.67
2023-02-25T23:29:10.237Z,3.56
2023-02-25T23:31:42.356Z,3.48
2023-02-25T23:34:12.286Z,3.38
2023-02-25T23:36:40.887Z,3.16
2023-02-25T23:39:09.014Z,3.07
2023-02-25T23:41:40.036Z,3.16
2023-02-25T23:44:11.614Z,2.96
2023-02-25T23:46:38.210Z,3.03
2023-02-25T23:49:08.880Z,2.95
2023-02-25T23:51:37.606Z,2.87
2023-02-25T23:54:09.489Z,2.90
2023-02-25T23:56:39.216Z,2.68
2023-02-25T23:59:07.903Z,2.80
